Keota, Iowa
Current Conditions -  °F | °C
As of 5:55 AM on Monday 22 Dec 2014 (Local Time) from KAWG Reporting Station
Overcast Overcast  
Wind Chill: 31°   Ceiling: 2700
Heat Index: 39°   Visibility: 10mi
Dew Point: 37°   Wind: 14mph
Humidity: 93%   Direction: 140°SE
Pressure: 29.75"   Gusts: 20mph
Location:  41.36°N, 91.95°W
Report Text: KAWG 221155Z AUTO 14012G17KT 10SM OVC027 04/03 A2975 RMK AO2
Loading
Personal Weather Stations






























Interactive Weather Map New forecast layout! Learn more

10-Day Weather Forecast

Advertisements
Track Severe Weather on mobile